createdAt,value
2019-03-30T00:05:01.683Z,100.00
2019-03-30T00:10:06.287Z,100.00
2019-03-30T00:15:10.859Z,100.00
2019-03-30T00:20:15.394Z,100.00
2019-03-30T00:25:20.001Z,100.00
2019-03-30T00:30:24.566Z,100.00
2019-03-30T00:35:29.161Z,100.00
2019-03-30T00:40:33.827Z,100.00
2019-03-30T00:45:38.409Z,100.00
2019-03-30T00:50:43.049Z,100.00
2019-03-30T00:55:47.537Z,100.00
2019-03-30T01:00:52.146Z,100.00
2019-03-30T01:05:58.335Z,100.00
2019-03-30T01:11:02.971Z,100.00
2019-03-30T01:16:07.574Z,100.00
2019-03-30T01:21:12.208Z,100.00
2019-03-30T01:26:16.770Z,100.00
2019-03-30T01:31:21.359Z,100.00
2019-03-30T01:36:25.949Z,100.00
2019-03-30T01:41:30.816Z,100.00
2019-03-30T01:46:35.403Z,100.00
2019-03-30T01:51:39.965Z,100.00
2019-03-30T01:56:44.538Z,100.00
2019-03-30T02:01:49.111Z,100.00
2019-03-30T02:06:53.704Z,100.00
2019-03-30T02:11:58.295Z,100.00
2019-03-30T02:17:02.880Z,100.00
2019-03-30T02:22:07.756Z,100.00
2019-03-30T02:27:12.390Z,100.00
2019-03-30T02:32:16.974Z,100.00
2019-03-30T02:37:21.553Z,100.00
2019-03-30T02:42:26.128Z,100.00
2019-03-30T02:47:30.672Z,100.00
2019-03-30T02:52:35.565Z,100.00
2019-03-30T02:57:40.132Z,100.00
2019-03-30T03:02:44.740Z,100.00
2019-03-30T03:07:49.478Z,100.00
2019-03-30T03:12:54.022Z,100.00
2019-03-30T03:17:58.619Z,100.00
2019-03-30T03:23:03.185Z,100.00
2019-03-30T03:28:07.779Z,100.00
2019-03-30T03:33:12.402Z,100.00
2019-03-30T03:38:17.033Z,100.00
2019-03-30T03:43:21.653Z,100.00
2019-03-30T03:48:26.241Z,100.00
2019-03-30T03:53:32.994Z,100.00
2019-03-30T03:58:39.412Z,100.00
2019-03-30T04:03:45.501Z,100.00
2019-03-30T04:08:53.402Z,100.00
2019-03-30T04:13:59.308Z,100.00
2019-03-30T04:19:03.883Z,100.00
2019-03-30T04:24:08.475Z,100.00
2019-03-30T04:29:13.089Z,100.00
2019-03-30T04:34:17.651Z,100.00
2019-03-30T04:39:22.261Z,100.00
2019-03-30T04:44:26.893Z,100.00
2019-03-30T04:49:31.631Z,100.00
2019-03-30T04:54:38.048Z,100.00
2019-03-30T04:59:42.726Z,100.00
2019-03-30T05:04:47.328Z,100.00
2019-03-30T05:09:51.900Z,100.00
2019-03-30T05:14:56.584Z,100.00
2019-03-30T05:20:01.200Z,100.00
2019-03-30T05:25:05.846Z,100.00
2019-03-30T05:30:10.648Z,100.00
2019-03-30T05:35:15.233Z,100.00
2019-03-30T05:40:19.801Z,100.00
2019-03-30T05:45:24.634Z,100.00
2019-03-30T05:50:29.236Z,100.00
2019-03-30T05:55:33.872Z,100.00
2019-03-30T06:00:38.477Z,100.00
2019-03-30T06:05:43.405Z,100.00
2019-03-30T06:10:48.555Z,100.00
2019-03-30T06:15:53.313Z,100.00
2019-03-30T06:20:57.986Z,100.00
2019-03-30T06:26:02.868Z,100.00
2019-03-30T06:31:07.427Z,100.00
2019-03-30T06:36:11.989Z,100.00
2019-03-30T06:41:16.595Z,100.00
2019-03-30T06:46:21.197Z,100.00
2019-03-30T06:51:25.744Z,100.00
2019-03-30T06:56:30.303Z,100.00
2019-03-30T07:01:35.187Z,100.00
2019-03-30T07:06:40.332Z,100.00
2019-03-30T07:11:46.555Z,100.00
2019-03-30T07:16:53.831Z,100.00
2019-03-30T07:21:58.487Z,100.00
2019-03-30T07:27:05.250Z,100.00
2019-03-30T07:32:09.847Z,100.00
2019-03-30T07:37:14.441Z,100.00
2019-03-30T07:42:19.004Z,100.00
2019-03-30T07:47:23.965Z,98.89
2019-03-30T07:52:28.545Z,99.07
2019-03-30T07:57:33.430Z,98.65
2019-03-30T08:02:38.142Z,97.36
2019-03-30T08:07:43.083Z,94.41
2019-03-30T08:12:47.654Z,93.03
2019-03-30T08:17:52.251Z,92.16
2019-03-30T08:22:56.835Z,89.65
2019-03-30T08:28:01.428Z,87.92
2019-03-30T08:33:06.291Z,86.38
2019-03-30T08:38:10.877Z,84.72
2019-03-30T08:43:15.511Z,84.14
2019-03-30T08:48:20.100Z,79.93
2019-03-30T08:53:25.244Z,80.11
2019-03-30T08:58:29.882Z,78.69
2019-03-30T09:03:34.449Z,78.93
2019-03-30T09:08:39.366Z,79.01
2019-03-30T09:13:43.947Z,77.55
2019-03-30T09:18:48.610Z,76.97
2019-03-30T09:23:53.236Z,74.48
2019-03-30T09:28:58.266Z,73.43
2019-03-30T09:34:03.190Z,71.22
2019-03-30T09:39:09.026Z,68.22
2019-03-30T09:44:13.615Z,59.88
2019-03-30T09:49:18.187Z,50.96
2019-03-30T09:54:23.922Z,46.31
2019-03-30T09:59:29.496Z,44.81
2019-03-30T10:04:34.592Z,45.58
2019-03-30T10:09:39.284Z,45.87
2019-03-30T10:14:43.874Z,46.92
2019-03-30T10:20:03.606Z,46.81
2019-03-30T10:24:58.172Z,47.23
2019-03-30T10:30:01.076Z,44.45
2019-03-30T10:35:06.247Z,43.01
2019-03-30T10:40:10.957Z,40.65
2019-03-30T10:45:15.542Z,40.64
2019-03-30T10:50:20.150Z,37.88
2019-03-30T10:55:24.782Z,37.28
2019-03-30T11:00:37.482Z,39.38
2019-03-30T11:05:42.162Z,40.35
2019-03-30T11:10:47.084Z,39.72
2019-03-30T11:15:51.652Z,37.97
2019-03-30T11:20:56.256Z,38.69
2019-03-30T11:26:01.196Z,37.97
2019-03-30T11:31:06.305Z,37.12
2019-03-30T11:36:10.911Z,40.00
2019-03-30T11:41:15.502Z,38.91
2019-03-30T11:46:20.106Z,41.49
2019-03-30T11:51:25.095Z,41.89
2019-03-30T11:56:29.646Z,38.74
2019-03-30T12:01:34.245Z,40.09
2019-03-30T12:06:38.849Z,36.98
2019-03-30T12:11:43.412Z,37.74
2019-03-30T12:16:48.038Z,36.85
2019-03-30T12:21:52.698Z,36.06
2019-03-30T12:26:57.285Z,37.10
2019-03-30T12:32:01.878Z,35.66
2019-03-30T12:37:06.465Z,35.34
2019-03-30T12:42:11.049Z,34.78
2019-03-30T12:47:15.663Z,35.80
2019-03-30T12:52:20.265Z,35.97
2019-03-30T12:57:25.029Z,35.62
2019-03-30T13:02:29.686Z,36.27
2019-03-30T13:07:52.201Z,34.92
2019-03-30T13:13:14.539Z,37.04
2019-03-30T13:18:19.111Z,37.96
2019-03-30T13:23:23.713Z,37.12
2019-03-30T13:28:30.270Z,37.82
2019-03-30T13:33:37.820Z,37.18
2019-03-30T13:38:42.454Z,37.89
2019-03-30T13:43:46.988Z,38.34
2019-03-30T13:48:51.895Z,37.07
2019-03-30T13:53:56.510Z,37.35
2019-03-30T13:59:01.121Z,37.08
2019-03-30T14:04:05.724Z,36.74
2019-03-30T14:09:10.330Z,35.83
2019-03-30T14:14:15.196Z,38.53
2019-03-30T14:19:19.743Z,38.65
2019-03-30T14:24:24.300Z,38.14
2019-03-30T14:29:28.888Z,38.44
2019-03-30T14:34:33.488Z,38.10
2019-03-30T14:39:38.020Z,37.12
2019-03-30T14:44:42.615Z,36.66
2019-03-30T14:49:47.276Z,36.49
2019-03-30T14:54:53.242Z,38.25
2019-03-30T14:59:57.961Z,36.90
2019-03-30T15:05:02.561Z,36.71
2019-03-30T15:10:08.213Z,37.01
2019-03-30T15:15:13.206Z,37.61
2019-03-30T15:20:17.880Z,35.92
2019-03-30T15:25:22.805Z,35.84
2019-03-30T15:30:27.706Z,38.23
2019-03-30T15:35:32.627Z,36.05
2019-03-30T15:40:37.343Z,36.86
2019-03-30T15:45:41.919Z,36.91
2019-03-30T15:50:46.604Z,37.06
2019-03-30T15:55:51.469Z,37.94
2019-03-30T16:01:07.904Z,37.36
2019-03-30T16:06:12.509Z,37.73
2019-03-30T16:11:17.461Z,39.40
2019-03-30T16:16:22.138Z,39.37
2019-03-30T16:21:26.749Z,39.86
2019-03-30T16:26:49.203Z,40.62
2019-03-30T16:31:54.101Z,40.51
2019-03-30T16:36:58.702Z,42.65
2019-03-30T16:42:03.326Z,42.97
2019-03-30T16:47:07.935Z,44.00
2019-03-30T16:52:30.556Z,46.04
2019-03-30T16:57:53.105Z,46.64
2019-03-30T17:02:57.734Z,46.11
2019-03-30T17:08:02.892Z,47.27
2019-03-30T17:13:07.613Z,48.87
2019-03-30T17:18:12.253Z,50.12
2019-03-30T17:23:16.938Z,50.84
2019-03-30T17:28:21.513Z,51.90
2019-03-30T17:33:26.109Z,53.19
2019-03-30T17:38:30.718Z,55.86
2019-03-30T17:43:35.327Z,57.41
2019-03-30T17:48:40.095Z,59.23
2019-03-30T17:53:44.596Z,61.51
2019-03-30T17:58:49.151Z,63.64
2019-03-30T18:03:54.001Z,66.20
2019-03-30T18:08:58.575Z,67.40
2019-03-30T18:14:03.185Z,69.12
2019-03-30T18:19:07.767Z,69.96
2019-03-30T18:24:12.380Z,72.03
2019-03-30T18:29:17.714Z,72.69
2019-03-30T18:34:22.307Z,72.21
2019-03-30T18:39:26.879Z,72.23
2019-03-30T18:44:31.726Z,74.15
2019-03-30T18:49:36.358Z,75.10
2019-03-30T18:54:49.677Z,77.02
2019-03-30T18:59:54.853Z,77.21
2019-03-30T19:05:01.001Z,78.64
2019-03-30T19:10:05.783Z,78.81
2019-03-30T19:15:10.520Z,80.75
2019-03-30T19:20:15.256Z,82.48
2019-03-30T19:25:19.858Z,83.66
2019-03-30T19:30:24.660Z,85.18
2019-03-30T19:35:30.436Z,85.97
2019-03-30T19:40:37.107Z,85.67
2019-03-30T19:45:44.191Z,85.99
2019-03-30T19:50:50.146Z,86.35
2019-03-30T19:55:54.959Z,85.61
2019-03-30T20:00:59.679Z,85.45
2019-03-30T20:06:05.181Z,86.42
2019-03-30T20:11:11.754Z,87.40
2019-03-30T20:16:16.515Z,86.91
2019-03-30T20:21:22.807Z,87.02
2019-03-30T20:26:27.615Z,86.71
2019-03-30T20:31:32.571Z,86.71
2019-03-30T20:36:38.178Z,88.04
2019-03-30T20:41:43.799Z,89.87
2019-03-30T20:46:50.567Z,89.87
2019-03-30T20:51:57.037Z,90.52
2019-03-30T20:57:04.189Z,90.95
2019-03-30T21:02:08.872Z,91.24
2019-03-30T21:07:14.094Z,92.71
2019-03-30T21:12:21.767Z,93.64
2019-03-30T21:17:26.517Z,94.29
2019-03-30T21:22:31.083Z,94.99
2019-03-30T21:27:36.036Z,95.57
2019-03-30T21:32:41.094Z,95.82
2019-03-30T21:37:46.123Z,95.92
2019-03-30T21:42:51.526Z,96.25
2019-03-30T21:47:56.813Z,96.55
2019-03-30T21:53:01.722Z,96.38
2019-03-30T21:58:06.247Z,95.71
2019-03-30T22:03:10.959Z,95.50
2019-03-30T22:08:17.323Z,95.81
2019-03-30T22:13:21.975Z,96.13
2019-03-30T22:18:26.637Z,96.76
2019-03-30T22:23:31.214Z,97.04
2019-03-30T22:28:35.825Z,97.12
2019-03-30T22:33:40.430Z,98.41
2019-03-30T22:38:45.279Z,99.40
2019-03-30T22:43:49.839Z,100.00
2019-03-30T22:48:54.476Z,100.00
2019-03-30T22:53:59.077Z,100.00
2019-03-30T22:59:03.616Z,100.00
2019-03-30T23:04:08.176Z,100.00
2019-03-30T23:09:12.750Z,100.00
2019-03-30T23:14:17.344Z,100.00
2019-03-30T23:19:21.958Z,100.00
2019-03-30T23:24:26.556Z,100.00
2019-03-30T23:29:31.175Z,100.00
2019-03-30T23:34:35.738Z,100.00
2019-03-30T23:39:40.317Z,100.00
2019-03-30T23:44:44.882Z,100.00
2019-03-30T23:49:49.469Z,100.00
2019-03-30T23:54:54.102Z,100.00
2019-03-30T23:59:58.719Z,100.00
